createdAt,value
2022-08-10T00:00:23.712Z,17.41
2022-08-10T00:01:23.933Z,17.38
2022-08-10T00:02:23.988Z,17.38
2022-08-10T00:03:24.119Z,17.35
2022-08-10T00:04:24.414Z,17.41
2022-08-10T00:05:24.479Z,17.41
2022-08-10T00:06:25.497Z,17.30
2022-08-10T00:07:24.796Z,17.28
2022-08-10T00:08:24.937Z,17.36
2022-08-10T00:09:25.090Z,17.23
2022-08-10T00:10:25.224Z,17.29
2022-08-10T00:11:25.464Z,17.22
2022-08-10T00:12:53.571Z,17.22
2022-08-10T00:13:27.506Z,17.22
2022-08-10T00:14:25.998Z,17.18
2022-08-10T00:15:44.384Z,17.11
2022-08-10T00:16:27.270Z,17.10
2022-08-10T00:17:26.394Z,17.23
2022-08-10T00:18:35.374Z,17.13
2022-08-10T00:19:27.681Z,17.17
2022-08-10T00:20:27.895Z,17.14
2022-08-10T00:21:27.396Z,17.06
2022-08-10T00:22:27.999Z,17.06
2022-08-10T00:23:27.485Z,17.00
2022-08-10T00:24:27.665Z,16.95
2022-08-10T00:25:28.509Z,17.03
2022-08-10T00:27:58.782Z,17.03
2022-08-10T00:28:03.941Z,16.99
2022-08-10T00:28:28.321Z,16.95
2022-08-10T00:29:28.476Z,16.98
2022-08-10T00:30:29.539Z,16.92
2022-08-10T00:31:29.552Z,16.92
2022-08-10T00:32:28.930Z,16.83
2022-08-10T00:33:29.095Z,16.71
2022-08-10T00:34:29.306Z,16.71
2022-08-10T00:35:29.490Z,16.58
2022-08-10T00:36:31.817Z,16.52
2022-08-10T00:37:29.888Z,16.58
2022-08-10T00:38:30.043Z,16.55
2022-08-10T00:39:30.261Z,16.63
2022-08-10T00:40:37.489Z,16.60
2022-08-10T00:41:31.563Z,16.55
2022-08-10T00:42:30.692Z,16.56
2022-08-10T00:43:30.855Z,16.67
2022-08-10T00:44:31.546Z,16.63
2022-08-10T00:45:31.248Z,16.63
2022-08-10T00:46:31.387Z,16.62
2022-08-10T00:47:36.776Z,16.62
2022-08-10T00:48:32.817Z,16.67
2022-08-10T00:49:31.909Z,16.59
2022-08-10T00:50:32.074Z,16.58
2022-08-10T00:51:43.092Z,16.53
2022-08-10T00:52:33.766Z,16.56
2022-08-10T00:53:32.718Z,16.59
2022-08-10T00:54:32.846Z,16.56
2022-08-10T00:55:32.977Z,16.60
2022-08-10T00:57:15.098Z,16.52
2022-08-10T00:57:35.048Z,16.55
2022-08-10T00:58:33.636Z,16.53
2022-08-10T00:59:33.766Z,16.56
2022-08-10T01:00:34.004Z,16.55
2022-08-10T01:02:08.598Z,16.53
2022-08-10T01:02:35.543Z,16.49
2022-08-10T01:04:40.270Z,16.44
2022-08-10T01:04:59.029Z,16.41
2022-08-10T01:05:35.949Z,16.40
2022-08-10T01:06:36.086Z,16.35
2022-08-10T01:07:35.214Z,16.37
2022-08-10T01:08:35.372Z,16.38
2022-08-10T01:09:35.536Z,16.42
2022-08-10T01:10:36.553Z,16.45
2022-08-10T01:12:34.154Z,16.41
2022-08-10T01:12:40.825Z,16.44
2022-08-10T01:13:36.263Z,16.45
2022-08-10T01:14:36.493Z,16.38
2022-08-10T01:15:36.608Z,16.38
2022-08-10T01:16:36.753Z,16.37
2022-08-10T01:17:50.438Z,16.45
2022-08-10T01:18:38.224Z,16.40
2022-08-10T01:19:38.259Z,16.34
2022-08-10T01:20:37.508Z,16.41
2022-08-10T01:21:37.667Z,16.34
2022-08-10T01:22:37.823Z,16.40
2022-08-10T01:23:37.979Z,16.34
2022-08-10T01:24:39.063Z,16.38
2022-08-10T01:26:12.142Z,16.30
2022-08-10T01:26:40.546Z,16.31
2022-08-10T01:27:38.670Z,16.35
2022-08-10T01:28:38.842Z,16.27
2022-08-10T01:29:39.014Z,16.31
2022-08-10T01:30:39.179Z,16.22
2022-08-10T01:31:39.320Z,16.27
2022-08-10T01:32:39.531Z,16.26
2022-08-10T01:34:02.425Z,16.20
2022-08-10T01:34:40.941Z,16.27
2022-08-10T01:35:41.064Z,16.27
2022-08-10T01:36:40.210Z,16.35
2022-08-10T01:37:40.406Z,16.31
2022-08-10T01:38:40.635Z,16.34
2022-08-10T01:39:40.909Z,16.35
2022-08-10T01:40:41.025Z,16.37
2022-08-10T01:41:46.610Z,16.40
2022-08-10T01:42:42.354Z,16.50
2022-08-10T01:43:42.062Z,16.42
2022-08-10T01:44:42.741Z,16.41
2022-08-10T01:45:44.828Z,16.40
2022-08-10T01:46:41.993Z,16.40
2022-08-10T01:47:42.225Z,16.26
2022-08-10T01:48:43.065Z,16.30
2022-08-10T01:49:42.613Z,16.35
2022-08-10T01:50:59.516Z,16.41
2022-08-10T01:51:44.077Z,16.48
2022-08-10T01:52:43.050Z,16.45
2022-08-10T01:53:43.187Z,16.49
2022-08-10T01:54:44.072Z,16.50
2022-08-10T01:55:43.605Z,16.55
2022-08-10T01:56:44.085Z,16.45
2022-08-10T01:57:43.983Z,16.59
2022-08-10T01:58:44.156Z,16.56
2022-08-10T02:00:00.539Z,16.48
2022-08-10T02:00:45.425Z,16.45
2022-08-10T02:01:44.709Z,16.38
2022-08-10T02:02:45.566Z,16.31
2022-08-10T02:04:01.235Z,16.12
2022-08-10T02:04:46.123Z,16.15
2022-08-10T02:05:45.275Z,16.16
2022-08-10T02:06:45.471Z,16.15
2022-08-10T02:07:45.630Z,16.23
2022-08-10T02:08:45.770Z,16.20
2022-08-10T02:09:45.902Z,16.33
2022-08-10T02:10:46.020Z,16.34
2022-08-10T02:12:06.167Z,16.26
2022-08-10T02:12:47.317Z,16.22
2022-08-10T02:13:47.074Z,16.09
2022-08-10T02:14:47.568Z,16.20
2022-08-10T02:16:01.154Z,16.18
2022-08-10T02:16:48.033Z,16.14
2022-08-10T02:17:57.748Z,16.01
2022-08-10T02:18:48.382Z,16.04
2022-08-10T02:19:47.598Z,16.09
2022-08-10T02:20:48.575Z,15.96
2022-08-10T02:22:45.658Z,15.94
2022-08-10T02:22:49.250Z,15.99
2022-08-10T02:23:59.345Z,16.04
2022-08-10T02:24:49.372Z,16.01
2022-08-10T02:25:48.622Z,15.96
2022-08-10T02:26:49.577Z,16.01
2022-08-10T02:27:50.577Z,15.96
2022-08-10T02:28:49.574Z,15.96
2022-08-10T02:29:49.397Z,16.01
2022-08-10T02:30:49.440Z,15.93
2022-08-10T02:31:51.532Z,15.94
2022-08-10T02:32:52.972Z,16.01
2022-08-10T02:33:57.546Z,15.97
2022-08-10T02:34:51.212Z,15.93
2022-08-10T02:35:54.529Z,15.89
2022-08-10T02:36:52.077Z,15.93
2022-08-10T02:37:50.670Z,15.88
2022-08-10T02:38:58.356Z,15.89
2022-08-10T02:39:52.070Z,15.84
2022-08-10T02:45:01.234Z,15.79
2022-08-10T02:45:01.817Z,15.85
2022-08-10T02:45:19.723Z,15.82
2022-08-10T02:45:20.852Z,15.74
2022-08-10T02:45:22.198Z,15.94
2022-08-10T02:45:54.184Z,15.79
2022-08-10T02:46:52.394Z,15.89
2022-08-10T02:47:52.782Z,15.84
2022-08-10T02:48:53.706Z,15.84
2022-08-10T02:49:52.834Z,15.76
2022-08-10T02:50:53.597Z,15.75
2022-08-10T02:52:07.174Z,15.70
2022-08-10T02:52:54.599Z,15.74
2022-08-10T02:53:56.826Z,15.70
2022-08-10T02:54:53.735Z,15.75
2022-08-10T02:55:54.098Z,15.67
2022-08-10T02:56:55.082Z,15.70
2022-08-10T02:58:17.610Z,15.66
2022-08-10T02:58:55.515Z,15.70
2022-08-10T02:59:54.728Z,15.59
2022-08-10T03:00:54.999Z,15.64
2022-08-10T03:01:55.020Z,15.56
2022-08-10T03:02:55.164Z,15.54
2022-08-10T03:03:56.088Z,15.52
2022-08-10T03:04:58.351Z,15.42
2022-08-10T03:05:55.604Z,15.54
2022-08-10T03:06:55.734Z,15.41
2022-08-10T03:07:56.590Z,15.41
2022-08-10T03:08:56.190Z,15.41
2022-08-10T03:09:57.331Z,15.30
2022-08-10T03:10:56.583Z,15.30
2022-08-10T03:12:35.595Z,15.24
2022-08-10T03:12:57.942Z,15.31
2022-08-10T03:13:59.537Z,15.23
2022-08-10T03:14:57.351Z,15.33
2022-08-10T03:15:58.104Z,15.27
2022-08-10T03:16:57.606Z,15.24
2022-08-10T03:17:58.991Z,15.31
2022-08-10T03:18:59.595Z,15.27
2022-08-10T03:20:35.560Z,15.36
2022-08-10T03:20:59.214Z,15.28
2022-08-10T03:21:58.434Z,15.38
2022-08-10T03:22:58.623Z,15.36
2022-08-10T03:23:58.762Z,15.51
2022-08-10T03:24:58.933Z,15.52
2022-08-10T03:25:59.060Z,15.41
2022-08-10T03:26:59.203Z,15.35
2022-08-10T03:27:59.323Z,15.42
2022-08-10T03:28:59.563Z,15.33
2022-08-10T03:30:29.562Z,15.28
2022-08-10T03:31:00.954Z,15.31
2022-08-10T03:32:00.592Z,15.24
2022-08-10T03:33:00.231Z,15.19
2022-08-10T03:34:01.095Z,15.17
2022-08-10T03:35:00.575Z,15.09
2022-08-10T03:36:39.963Z,15.17
2022-08-10T03:37:01.842Z,15.01
2022-08-10T03:38:01.617Z,15.06
2022-08-10T03:39:02.106Z,15.08
2022-08-10T03:40:01.486Z,15.03
2022-08-10T03:41:01.621Z,15.01
2022-08-10T03:42:01.773Z,15.06
2022-08-10T03:43:02.601Z,15.05
2022-08-10T03:44:02.108Z,15.11
2022-08-10T03:45:02.314Z,15.05
2022-08-10T03:46:02.467Z,15.15
2022-08-10T03:47:03.096Z,15.17
2022-08-10T03:48:03.844Z,15.13
2022-08-10T03:49:02.958Z,15.20
2022-08-10T03:50:03.459Z,15.23
2022-08-10T03:51:04.241Z,15.15
2022-08-10T03:52:03.464Z,15.23
2022-08-10T03:53:04.603Z,15.24
2022-08-10T03:54:07.332Z,15.17
2022-08-10T03:55:05.118Z,15.28
2022-08-10T03:56:30.099Z,15.21
2022-08-10T03:57:05.323Z,15.17
2022-08-10T03:58:04.559Z,15.23
2022-08-10T03:59:04.700Z,15.19
2022-08-10T04:00:05.615Z,15.17
2022-08-10T04:01:05.118Z,15.21
2022-08-10T04:02:47.060Z,15.19
2022-08-10T04:03:06.288Z,15.21
2022-08-10T04:04:11.637Z,15.09
2022-08-10T04:05:06.632Z,15.06
2022-08-10T04:06:05.855Z,15.09
2022-08-10T04:07:05.992Z,15.09
2022-08-10T04:08:08.129Z,15.13
2022-08-10T04:09:06.313Z,15.17
2022-08-10T04:10:06.428Z,15.06
2022-08-10T04:11:07.642Z,15.12
2022-08-10T04:12:06.881Z,15.08
2022-08-10T04:13:07.118Z,15.13
2022-08-10T04:14:38.043Z,15.06
2022-08-10T04:15:08.359Z,15.09
2022-08-10T04:16:07.708Z,15.08
2022-08-10T04:17:13.354Z,15.05
2022-08-10T04:18:09.957Z,15.01
2022-08-10T04:19:09.107Z,14.93
2022-08-10T04:20:08.617Z,14.99
2022-08-10T04:21:08.485Z,14.91
2022-08-10T04:22:08.720Z,14.94
2022-08-10T04:23:08.846Z,14.88
2022-08-10T04:24:09.608Z,14.99
2022-08-10T04:25:10.205Z,14.93
2022-08-10T04:26:10.113Z,14.99
2022-08-10T04:27:09.487Z,15.05
2022-08-10T04:28:10.122Z,15.05
2022-08-10T04:29:09.773Z,15.08
2022-08-10T04:30:09.926Z,15.09
2022-08-10T04:31:11.101Z,15.11
2022-08-10T04:32:11.109Z,15.11
2022-08-10T04:33:10.629Z,15.08
2022-08-10T04:34:10.523Z,15.08
2022-08-10T04:35:10.735Z,15.20
2022-08-10T04:36:10.901Z,15.12
2022-08-10T04:37:11.084Z,15.20
2022-08-10T04:38:11.271Z,15.24
2022-08-10T04:39:11.445Z,15.21
2022-08-10T04:40:29.708Z,15.23
2022-08-10T04:41:13.613Z,15.28
2022-08-10T04:42:12.614Z,15.19
2022-08-10T04:43:13.383Z,15.28
2022-08-10T04:44:14.114Z,15.24
2022-08-10T04:45:13.117Z,15.24
2022-08-10T04:46:56.314Z,15.38
2022-08-10T04:47:13.626Z,15.30
2022-08-10T04:48:40.210Z,15.33
2022-08-10T04:49:54.068Z,15.31
2022-08-10T04:50:14.326Z,15.35
2022-08-10T04:51:16.902Z,15.30
2022-08-10T04:52:14.134Z,15.38
2022-08-10T04:53:14.128Z,15.42
2022-08-10T04:54:15.975Z,15.43
2022-08-10T04:55:15.117Z,15.42
2022-08-10T04:56:14.271Z,15.41
2022-08-10T04:57:14.464Z,15.42
2022-08-10T04:58:14.679Z,15.38
2022-08-10T04:59:14.845Z,15.43
2022-08-10T05:00:19.147Z,15.41
2022-08-10T05:01:15.175Z,15.30
2022-08-10T05:02:29.285Z,15.27
2022-08-10T05:03:16.401Z,15.30
2022-08-10T05:04:34.699Z,15.42
2022-08-10T05:05:16.647Z,15.30
2022-08-10T05:06:15.802Z,15.31
2022-08-10T05:07:18.501Z,15.31
2022-08-10T05:08:16.180Z,15.39
2022-08-10T05:09:16.311Z,15.49
2022-08-10T05:10:16.453Z,15.56
2022-08-10T05:11:24.005Z,15.54
2022-08-10T05:12:17.720Z,15.70
2022-08-10T05:13:16.963Z,15.67
2022-08-10T05:14:17.139Z,15.72
2022-08-10T05:15:17.291Z,15.81
2022-08-10T05:16:31.582Z,15.85
2022-08-10T05:17:19.124Z,15.86
2022-08-10T05:18:18.624Z,15.86
2022-08-10T05:20:01.364Z,15.89
2022-08-10T05:20:18.647Z,15.94
2022-08-10T05:21:52.482Z,15.93
2022-08-10T05:22:18.538Z,16.03
2022-08-10T05:23:19.628Z,16.06
2022-08-10T05:24:18.875Z,15.94
2022-08-10T05:25:19.037Z,16.00
2022-08-10T05:26:19.168Z,15.97
2022-08-10T05:27:19.296Z,16.01
2022-08-10T05:28:19.426Z,16.15
2022-08-10T05:29:19.604Z,16.20
2022-08-10T05:30:20.142Z,16.18
2022-08-10T05:31:23.514Z,16.35
2022-08-10T05:32:20.057Z,16.44
2022-08-10T05:33:20.190Z,16.40
2022-08-10T05:34:21.046Z,16.62
2022-08-10T05:35:20.579Z,16.63
2022-08-10T05:36:21.148Z,16.68
2022-08-10T05:38:11.451Z,16.70
2022-08-10T05:38:22.196Z,16.80
2022-08-10T05:39:30.550Z,16.89
2022-08-10T05:40:23.136Z,16.96
2022-08-10T05:41:21.705Z,17.06
2022-08-10T05:42:22.666Z,17.13
2022-08-10T05:43:22.145Z,17.22
2022-08-10T05:44:23.366Z,17.20
2022-08-10T05:45:22.586Z,17.25
2022-08-10T05:46:22.707Z,17.29
2022-08-10T05:47:22.972Z,17.40
2022-08-10T05:48:55.247Z,17.44
2022-08-10T05:49:24.251Z,17.44
2022-08-10T05:50:23.457Z,17.48
2022-08-10T05:51:23.581Z,17.55
2022-08-10T05:52:23.718Z,17.69
2022-08-10T05:54:01.154Z,17.70
2022-08-10T05:54:25.017Z,17.67
2022-08-10T05:55:24.232Z,17.73
2022-08-10T05:56:24.475Z,17.76
2022-08-10T05:57:24.613Z,17.70
2022-08-10T05:58:25.638Z,17.67
2022-08-10T06:00:29.334Z,17.76
2022-08-10T06:00:36.957Z,17.73
2022-08-10T06:01:26.694Z,17.74
2022-08-10T06:02:41.792Z,17.85
2022-08-10T06:03:27.148Z,17.87
2022-08-10T06:04:26.154Z,18.03
2022-08-10T06:05:25.905Z,18.03
2022-08-10T06:06:26.065Z,18.18
2022-08-10T06:07:26.217Z,18.24
2022-08-10T06:08:26.872Z,18.29
2022-08-10T06:09:26.631Z,18.37
2022-08-10T06:10:32.139Z,18.40
2022-08-10T06:12:23.858Z,18.40
2022-08-10T06:12:35.262Z,18.39
2022-08-10T06:13:34.369Z,18.42
2022-08-10T06:14:29.218Z,18.47
2022-08-10T06:15:51.692Z,18.57
2022-08-10T06:16:28.902Z,18.61
2022-08-10T06:17:28.644Z,18.70
2022-08-10T06:18:28.156Z,18.62
2022-08-10T06:19:28.305Z,18.62
2022-08-10T06:20:30.727Z,18.72
2022-08-10T06:21:29.589Z,18.86
2022-08-10T06:22:29.645Z,18.91
2022-08-10T06:23:29.644Z,19.02
2022-08-10T06:24:30.574Z,19.21
2022-08-10T06:26:10.142Z,19.32
2022-08-10T06:26:30.449Z,19.17
2022-08-10T06:27:34.298Z,19.18
2022-08-10T06:28:30.731Z,19.20
2022-08-10T06:29:29.856Z,19.18
2022-08-10T06:30:30.012Z,19.15
2022-08-10T06:31:47.855Z,19.24
2022-08-10T06:32:32.455Z,19.24
2022-08-10T06:33:30.610Z,19.25
2022-08-10T06:34:30.770Z,19.35
2022-08-10T06:35:30.934Z,19.43
2022-08-10T06:36:33.889Z,19.50
2022-08-10T06:37:31.312Z,19.58
2022-08-10T06:38:31.661Z,19.66
2022-08-10T06:39:34.599Z,19.54
2022-08-10T06:40:32.855Z,19.72
2022-08-10T06:42:15.423Z,19.60
2022-08-10T06:42:33.153Z,19.65
2022-08-10T06:43:33.161Z,19.73
2022-08-10T06:44:32.561Z,19.68
2022-08-10T06:45:33.664Z,19.61
2022-08-10T06:46:33.657Z,19.73
2022-08-10T06:47:33.146Z,19.73
2022-08-10T06:48:34.151Z,19.76
2022-08-10T06:49:33.576Z,19.87
2022-08-10T06:50:56.228Z,19.94
2022-08-10T06:51:35.163Z,20.06
2022-08-10T06:52:35.025Z,20.09
2022-08-10T06:53:52.260Z,20.13
2022-08-10T06:54:35.695Z,20.16
2022-08-10T06:55:45.468Z,20.23
2022-08-10T06:56:41.443Z,20.34
2022-08-10T06:57:36.008Z,20.43
2022-08-10T06:58:35.126Z,20.51
2022-08-10T06:59:36.997Z,20.77
2022-08-10T07:00:36.549Z,20.83
2022-08-10T07:01:35.564Z,21.04
2022-08-10T07:02:36.347Z,21.30
2022-08-10T07:03:35.840Z,21.85
2022-08-10T07:04:35.987Z,22.34
2022-08-10T07:05:36.146Z,22.69
2022-08-10T07:06:36.273Z,22.57
2022-08-10T07:07:36.430Z,22.62
2022-08-10T07:08:36.576Z,22.52
2022-08-10T07:09:36.692Z,22.10
2022-08-10T07:10:46.025Z,21.99
2022-08-10T07:11:38.060Z,21.90
2022-08-10T07:12:37.508Z,21.83
2022-08-10T07:14:15.360Z,21.63
2022-08-10T07:14:38.616Z,21.71
2022-08-10T07:15:59.416Z,21.78
2022-08-10T07:16:38.868Z,21.90
2022-08-10T07:17:39.656Z,21.75
2022-08-10T07:18:39.678Z,21.57
2022-08-10T07:19:49.618Z,21.42
2022-08-10T07:20:39.776Z,21.39
2022-08-10T07:21:39.666Z,21.41
2022-08-10T07:23:08.275Z,21.45
2022-08-10T07:23:57.083Z,21.32
2022-08-10T07:24:40.456Z,21.27
2022-08-10T07:25:39.683Z,21.27
2022-08-10T07:26:39.709Z,21.44
2022-08-10T07:28:00.022Z,21.38
2022-08-10T07:28:44.957Z,21.56
2022-08-10T07:29:53.868Z,21.59
2022-08-10T07:30:41.389Z,21.79
2022-08-10T07:31:55.852Z,21.82
2022-08-10T07:32:41.689Z,21.99
2022-08-10T07:33:41.671Z,22.22
2022-08-10T07:34:41.029Z,22.50
2022-08-10T07:35:42.475Z,22.92
2022-08-10T07:36:41.691Z,23.32
2022-08-10T07:37:41.593Z,23.92
2022-08-10T07:38:41.736Z,24.05
2022-08-10T07:39:57.856Z,24.17
2022-08-10T07:40:43.179Z,24.01
2022-08-10T07:41:42.276Z,23.90
2022-08-10T07:42:45.810Z,23.79
2022-08-10T07:43:43.689Z,23.39
2022-08-10T07:44:42.808Z,23.07
2022-08-10T07:45:42.952Z,22.99
2022-08-10T07:46:43.113Z,22.94
2022-08-10T07:47:52.689Z,22.82
2022-08-10T07:48:44.396Z,22.64
2022-08-10T07:49:44.172Z,22.59
2022-08-10T07:50:44.184Z,22.72
2022-08-10T07:51:43.808Z,22.67
2022-08-10T07:52:43.990Z,22.72
2022-08-10T07:53:44.129Z,22.75
2022-08-10T07:54:45.180Z,22.89
2022-08-10T07:56:02.012Z,23.08
2022-08-10T07:56:49.504Z,23.12
2022-08-10T07:57:45.773Z,23.08
2022-08-10T07:58:48.070Z,23.24
2022-08-10T07:59:46.074Z,23.32
2022-08-10T08:00:45.229Z,23.39
2022-08-10T08:01:45.756Z,23.38
2022-08-10T08:02:45.554Z,23.42
2022-08-10T08:03:46.679Z,23.31
2022-08-10T08:04:46.952Z,23.31
2022-08-10T08:05:59.077Z,23.39
2022-08-10T08:06:47.253Z,23.39
2022-08-10T08:07:47.182Z,23.26
2022-08-10T08:08:46.555Z,23.24
2022-08-10T08:09:57.967Z,23.22
2022-08-10T08:10:47.901Z,23.14
2022-08-10T08:11:47.036Z,23.20
2022-08-10T08:12:47.213Z,23.34
2022-08-10T08:13:48.187Z,23.39
2022-08-10T08:14:47.742Z,23.46
2022-08-10T08:16:18.687Z,23.55
2022-08-10T08:16:49.694Z,23.61
2022-08-10T08:17:48.051Z,23.67
2022-08-10T08:18:58.116Z,23.72
2022-08-10T08:19:55.635Z,23.70
2022-08-10T08:20:50.190Z,23.71
2022-08-10T08:24:10.166Z,23.79
2022-08-10T08:24:10.687Z,23.86
2022-08-10T08:24:11.224Z,23.82
2022-08-10T08:24:52.294Z,23.77
2022-08-10T08:25:49.399Z,23.87
2022-08-10T08:26:52.027Z,23.85
2022-08-10T08:27:49.858Z,23.71
2022-08-10T08:28:50.046Z,23.85
2022-08-10T08:29:51.195Z,23.89
2022-08-10T08:30:50.472Z,23.77
2022-08-10T08:32:01.374Z,23.90
2022-08-10T08:32:51.847Z,23.80
2022-08-10T08:33:51.013Z,23.98
2022-08-10T08:34:51.169Z,24.13
2022-08-10T08:35:51.392Z,24.13
2022-08-10T08:36:54.937Z,24.26
2022-08-10T08:38:30.417Z,24.19
2022-08-10T08:38:52.835Z,24.23
2022-08-10T08:39:52.018Z,24.26
2022-08-10T08:40:52.210Z,24.23
2022-08-10T08:41:52.396Z,24.29
2022-08-10T08:42:52.590Z,24.34
2022-08-10T08:43:52.805Z,24.34
2022-08-10T08:44:52.969Z,24.53
2022-08-10T08:46:01.017Z,24.42
2022-08-10T08:46:59.150Z,24.57
2022-08-10T08:48:04.569Z,24.56
2022-08-10T08:48:54.683Z,24.64
2022-08-10T08:50:08.669Z,24.68
2022-08-10T08:50:57.536Z,24.71
2022-08-10T08:52:07.018Z,24.76
2022-08-10T08:52:55.528Z,24.80
2022-08-10T08:54:02.679Z,24.76
2022-08-10T08:54:55.905Z,24.75
2022-08-10T08:56:05.787Z,24.83
2022-08-10T08:56:56.162Z,24.88
2022-08-10T08:57:55.285Z,24.85
2022-08-10T08:58:55.432Z,24.88
2022-08-10T08:59:55.582Z,25.05
2022-08-10T09:00:56.706Z,25.06
2022-08-10T09:01:55.985Z,24.92
2022-08-10T09:02:56.183Z,24.87
2022-08-10T09:03:57.204Z,24.82
2022-08-10T09:04:56.561Z,24.79
2022-08-10T09:05:59.120Z,24.90
2022-08-10T09:06:57.704Z,25.01
2022-08-10T09:08:01.757Z,25.02
2022-08-10T09:08:58.710Z,25.05
2022-08-10T09:09:57.725Z,25.07
2022-08-10T09:10:57.448Z,25.07
2022-08-10T09:11:58.208Z,25.12
2022-08-10T09:12:57.803Z,25.19
2022-08-10T09:13:58.712Z,25.22
2022-08-10T09:14:58.719Z,25.57
2022-08-10T09:16:00.749Z,25.89
2022-08-10T09:17:00.208Z,26.29
2022-08-10T09:17:58.763Z,26.39
2022-08-10T09:18:59.711Z,26.31
2022-08-10T09:19:59.086Z,26.12
2022-08-10T09:20:59.191Z,25.91
2022-08-10T09:22:18.486Z,25.74
2022-08-10T09:23:01.213Z,25.65
2022-08-10T09:24:04.074Z,25.61
2022-08-10T09:25:01.057Z,25.59
2022-08-10T09:26:00.268Z,25.62
2022-08-10T09:27:00.387Z,25.83
2022-08-10T09:28:00.562Z,25.86
2022-08-10T09:29:12.423Z,25.82
2022-08-10T09:30:01.971Z,25.68
2022-08-10T09:31:21.430Z,25.61
2022-08-10T09:36:16.742Z,25.71
2022-08-10T09:36:20.171Z,25.38
2022-08-10T09:36:22.800Z,25.65
2022-08-10T09:36:23.506Z,25.39
2022-08-10T09:36:28.668Z,25.52
2022-08-10T09:37:03.716Z,25.28
2022-08-10T09:38:03.368Z,25.28
2022-08-10T09:39:03.355Z,25.54
2022-08-10T09:40:56.785Z,25.83
2022-08-10T09:41:09.125Z,25.86
2022-08-10T09:42:04.912Z,25.71
2022-08-10T09:43:25.015Z,25.65
2022-08-10T09:44:06.220Z,25.84
2022-08-10T09:45:03.546Z,26.02
2022-08-10T09:46:03.675Z,26.21
2022-08-10T09:47:03.798Z,26.44
2022-08-10T09:48:03.912Z,26.59
2022-08-10T09:49:04.034Z,26.68
2022-08-10T09:50:05.047Z,26.44
2022-08-10T09:52:06.606Z,26.15
2022-08-10T09:53:04.809Z,25.89
2022-08-10T09:54:05.043Z,26.02
2022-08-10T09:55:05.237Z,26.04
2022-08-10T09:56:17.409Z,25.99
2022-08-10T09:57:45.026Z,25.89
2022-08-10T09:58:07.731Z,25.87
2022-08-10T09:59:26.917Z,25.91
2022-08-10T10:00:06.103Z,25.89
2022-08-10T10:01:06.246Z,25.94
2022-08-10T10:02:07.370Z,26.09
2022-08-10T10:03:06.763Z,26.31
2022-08-10T10:04:06.721Z,26.40
2022-08-10T10:05:06.892Z,26.36
2022-08-10T10:06:07.027Z,26.36
2022-08-10T10:07:07.738Z,26.15
2022-08-10T10:08:07.381Z,26.24
2022-08-10T10:09:10.044Z,26.17
2022-08-10T10:10:07.729Z,26.20
2022-08-10T10:11:07.879Z,25.97
2022-08-10T10:12:10.106Z,26.12
2022-08-10T10:13:08.215Z,26.28
2022-08-10T10:14:12.352Z,26.39
2022-08-10T10:15:09.592Z,26.36
2022-08-10T10:16:08.743Z,26.61
2022-08-10T10:17:08.898Z,26.55
2022-08-10T10:18:09.741Z,26.52
2022-08-10T10:19:09.256Z,26.25
2022-08-10T10:20:09.408Z,26.27
2022-08-10T10:21:09.610Z,26.22
2022-08-10T10:22:10.247Z,26.11
2022-08-10T10:23:09.869Z,25.98
2022-08-10T10:24:21.766Z,26.04
2022-08-10T10:25:19.507Z,26.09
2022-08-10T10:26:18.470Z,26.09
2022-08-10T10:27:16.025Z,26.21
2022-08-10T10:28:10.773Z,26.32
2022-08-10T10:29:37.488Z,26.49
2022-08-10T10:30:13.179Z,26.65
2022-08-10T10:31:16.437Z,26.69
2022-08-10T10:32:13.495Z,26.76
2022-08-10T10:33:13.046Z,26.83
2022-08-10T10:34:11.857Z,26.74
2022-08-10T10:35:11.995Z,26.84
2022-08-10T10:36:12.749Z,27.01
2022-08-10T10:37:12.317Z,26.98
2022-08-10T10:38:12.838Z,27.10
2022-08-10T10:39:12.767Z,27.26
2022-08-10T10:40:12.799Z,27.26
2022-08-10T10:41:12.915Z,27.24
2022-08-10T10:42:28.930Z,27.21
2022-08-10T10:43:15.761Z,27.19
2022-08-10T10:44:13.443Z,26.79
2022-08-10T10:45:13.679Z,26.62
2022-08-10T10:46:13.916Z,26.73
2022-08-10T10:47:14.050Z,26.65
2022-08-10T10:48:17.766Z,26.55
2022-08-10T10:49:15.421Z,26.68
2022-08-10T10:50:14.625Z,26.59
2022-08-10T10:51:14.771Z,26.65
2022-08-10T10:52:14.890Z,26.69
2022-08-10T10:53:15.754Z,26.86
2022-08-10T10:54:15.262Z,26.91
2022-08-10T10:55:16.258Z,26.80
2022-08-10T10:56:16.442Z,26.92
2022-08-10T10:57:16.674Z,26.91
2022-08-10T10:58:20.076Z,27.09
2022-08-10T10:59:54.199Z,27.28
2022-08-10T11:00:17.183Z,27.38
2022-08-10T11:01:16.497Z,27.41
2022-08-10T11:02:17.287Z,27.48
2022-08-10T11:03:16.751Z,27.50
2022-08-10T11:04:17.889Z,27.62
2022-08-10T11:05:17.146Z,27.58
2022-08-10T11:06:17.296Z,27.46
2022-08-10T11:07:17.451Z,27.62
2022-08-10T11:08:17.785Z,27.77
2022-08-10T11:10:03.360Z,27.85
2022-08-10T11:10:32.823Z,27.77
2022-08-10T11:11:20.548Z,27.86
2022-08-10T11:12:19.664Z,27.74
2022-08-10T11:14:23.396Z,27.73
2022-08-10T11:14:25.578Z,27.84
2022-08-10T11:15:20.756Z,27.76
2022-08-10T11:16:19.757Z,27.48
2022-08-10T11:17:19.417Z,27.41
2022-08-10T11:18:19.772Z,27.39
2022-08-10T11:19:19.804Z,27.38
2022-08-10T11:20:19.954Z,27.41
2022-08-10T11:21:20.113Z,27.41
2022-08-10T11:22:20.266Z,27.42
2022-08-10T11:23:20.434Z,27.46
2022-08-10T11:24:47.531Z,27.38
2022-08-10T11:25:21.716Z,27.33
2022-08-10T11:26:20.883Z,27.19
2022-08-10T11:27:22.178Z,27.11
2022-08-10T11:28:21.762Z,27.14
2022-08-10T11:29:21.415Z,27.24
2022-08-10T11:30:21.560Z,27.28
2022-08-10T11:31:21.720Z,27.21
2022-08-10T11:32:21.885Z,27.02
2022-08-10T11:33:30.918Z,26.89
2022-08-10T11:34:48.194Z,27.01
2022-08-10T11:35:23.388Z,27.11
2022-08-10T11:36:22.502Z,27.23
2022-08-10T11:37:22.661Z,27.24
2022-08-10T11:38:34.537Z,27.24
2022-08-10T11:39:24.054Z,27.21
2022-08-10T11:40:23.279Z,27.09
2022-08-10T11:42:09.879Z,27.11
2022-08-10T11:42:33.465Z,27.21
2022-08-10T11:43:25.845Z,27.23
2022-08-10T11:44:24.771Z,27.28
2022-08-10T11:45:24.268Z,27.23
2022-08-10T11:46:28.808Z,27.32
2022-08-10T11:47:25.593Z,27.26
2022-08-10T11:48:52.807Z,27.43
2022-08-10T11:49:26.778Z,27.64
2022-08-10T11:50:25.253Z,27.91
2022-08-10T11:51:25.379Z,27.89
2022-08-10T11:52:25.787Z,27.86
2022-08-10T11:53:25.679Z,27.88
2022-08-10T11:54:25.795Z,27.88
2022-08-10T11:55:26.036Z,27.98
2022-08-10T11:56:26.233Z,28.10
2022-08-10T11:57:26.360Z,28.06
2022-08-10T11:58:27.794Z,27.99
2022-08-10T11:59:27.278Z,27.89
2022-08-10T12:00:29.368Z,27.85
2022-08-10T12:01:27.083Z,27.86
2022-08-10T12:02:27.312Z,27.99
2022-08-10T12:03:32.628Z,28.07
2022-08-10T12:04:30.283Z,28.06
2022-08-10T12:05:46.764Z,28.29
2022-08-10T12:06:54.333Z,28.19
2022-08-10T12:08:55.017Z,28.36
2022-08-10T12:10:05.209Z,28.48
2022-08-10T12:10:10.938Z,28.66
2022-08-10T12:10:30.798Z,28.85
2022-08-10T12:11:29.299Z,28.80
2022-08-10T12:12:29.197Z,28.80
2022-08-10T12:13:29.340Z,28.81
2022-08-10T12:14:29.504Z,28.65
2022-08-10T12:15:30.288Z,28.85
2022-08-10T12:16:29.814Z,28.84
2022-08-10T12:17:29.933Z,28.47
2022-08-10T12:18:30.783Z,28.43
2022-08-10T12:19:30.299Z,28.17
2022-08-10T12:20:31.795Z,28.11
2022-08-10T12:21:30.651Z,28.11
2022-08-10T12:22:30.816Z,28.17
2022-08-10T12:23:31.791Z,28.31
2022-08-10T12:24:32.122Z,28.26
2022-08-10T12:25:55.666Z,28.13
2022-08-10T12:26:33.296Z,28.14
2022-08-10T12:27:32.309Z,28.38
2022-08-10T12:28:49.081Z,28.72
2022-08-10T12:29:32.943Z,29.15
2022-08-10T12:30:32.194Z,29.34
2022-08-10T12:31:33.356Z,29.20
2022-08-10T12:32:32.598Z,28.85
2022-08-10T12:33:33.292Z,28.90
2022-08-10T12:34:33.901Z,29.08
2022-08-10T12:35:33.028Z,29.19
2022-08-10T12:36:33.791Z,29.38
2022-08-10T12:37:33.804Z,29.40
2022-08-10T12:38:33.674Z,29.52
2022-08-10T12:39:33.950Z,29.44
2022-08-10T12:40:36.092Z,29.08
2022-08-10T12:41:44.462Z,28.87
2022-08-10T12:42:40.680Z,28.87
2022-08-10T12:44:07.160Z,28.51
2022-08-10T12:44:41.165Z,28.53
2022-08-10T12:45:36.305Z,28.36
2022-08-10T12:46:35.796Z,28.50
2022-08-10T12:47:35.801Z,28.77
2022-08-10T12:48:36.294Z,28.72
2022-08-10T12:49:35.661Z,28.43
2022-08-10T12:50:36.309Z,28.56
2022-08-10T12:51:36.047Z,28.65
2022-08-10T12:52:36.518Z,28.72
2022-08-10T12:53:36.908Z,28.80
2022-08-10T12:54:37.322Z,28.65
2022-08-10T12:55:36.751Z,28.23